createdAt,value
2019-04-01T00:00:41.944Z,14.70
2019-04-01T00:03:12.481Z,14.70
2019-04-01T00:05:43.118Z,14.70
2019-04-01T00:08:13.661Z,14.70
2019-04-01T00:10:44.333Z,14.70
2019-04-01T00:13:14.871Z,14.70
2019-04-01T00:15:45.518Z,14.70
2019-04-01T00:18:16.062Z,14.60
2019-04-01T00:20:46.726Z,14.60
2019-04-01T00:23:18.363Z,14.60
2019-04-01T00:25:50.409Z,14.60
2019-04-01T00:28:22.104Z,14.60
2019-04-01T00:30:52.643Z,14.60
2019-04-01T00:33:24.295Z,14.60
2019-04-01T00:35:54.976Z,14.60
2019-04-01T00:38:25.527Z,14.60
2019-04-01T00:40:56.197Z,14.60
2019-04-01T00:43:45.677Z,14.50
2019-04-01T00:46:17.477Z,14.50
2019-04-01T00:48:49.479Z,14.50
2019-04-01T00:51:21.171Z,14.50
2019-04-01T00:53:51.793Z,14.50
2019-04-01T00:56:22.381Z,14.50
2019-04-01T00:58:52.936Z,14.50
2019-04-01T01:01:24.999Z,14.40
2019-04-01T01:03:55.536Z,14.40
2019-04-01T01:06:26.130Z,14.40
2019-04-01T01:08:59.618Z,14.40
2019-04-01T01:11:30.426Z,14.40
2019-04-01T01:14:00.978Z,14.40
2019-04-01T01:16:31.554Z,14.40
2019-04-01T01:19:02.119Z,14.30
2019-04-01T01:21:34.890Z,14.30
2019-04-01T01:24:05.464Z,14.30
2019-04-01T01:26:36.182Z,14.30
2019-04-01T01:29:07.726Z,14.30
2019-04-01T01:31:38.384Z,14.20
2019-04-01T01:34:08.943Z,14.20
2019-04-01T01:36:41.348Z,14.20
2019-04-01T01:39:12.007Z,14.20
2019-04-01T01:41:42.648Z,14.20
2019-04-01T01:44:14.317Z,14.20
2019-04-01T01:46:44.903Z,14.20
2019-04-01T01:49:15.452Z,14.20
2019-04-01T01:51:47.844Z,14.20
2019-04-01T01:54:18.500Z,14.20
2019-04-01T01:56:49.099Z,14.10
2019-04-01T01:59:19.646Z,14.10
2019-04-01T02:01:50.332Z,14.10
2019-04-01T02:04:20.913Z,14.10
2019-04-01T02:06:51.519Z,14.10
2019-04-01T02:09:22.081Z,14.10
2019-04-01T02:11:52.618Z,14.10
2019-04-01T02:14:23.192Z,14.10
2019-04-01T02:16:53.730Z,14.10
2019-04-01T02:19:25.490Z,14.00
2019-04-01T02:21:56.034Z,14.00
2019-04-01T02:24:26.645Z,14.00
2019-04-01T02:26:57.202Z,13.90
2019-04-01T02:29:28.889Z,13.90
2019-04-01T02:31:59.547Z,13.90
2019-04-01T02:34:30.144Z,13.90
2019-04-01T02:37:00.683Z,13.90
2019-04-01T02:39:31.267Z,13.80
2019-04-01T02:42:02.358Z,13.80
2019-04-01T02:44:32.963Z,13.80
2019-04-01T02:47:03.579Z,13.80
2019-04-01T02:49:34.269Z,13.80
2019-04-01T02:52:04.940Z,13.80
2019-04-01T02:54:35.618Z,13.80
2019-04-01T02:57:06.206Z,13.80
2019-04-01T02:59:36.756Z,13.80
2019-04-01T03:02:08.731Z,13.80
2019-04-01T03:04:39.296Z,13.70
2019-04-01T03:07:09.945Z,13.70
2019-04-01T03:09:40.504Z,13.70
2019-04-01T03:12:14.725Z,13.70
2019-04-01T03:14:45.314Z,13.70
2019-04-01T03:17:15.868Z,13.70
2019-04-01T03:19:48.218Z,13.70
2019-04-01T03:22:18.859Z,13.60
2019-04-01T03:24:49.471Z,13.60
2019-04-01T03:27:20.128Z,13.60
2019-04-01T03:29:50.697Z,13.60
2019-04-01T03:32:21.222Z,13.60
2019-04-01T03:34:51.822Z,13.60
2019-04-01T03:37:23.427Z,13.50
2019-04-01T03:39:57.281Z,13.50
2019-04-01T03:42:27.839Z,13.50
2019-04-01T03:44:58.445Z,13.50
2019-04-01T03:47:29.005Z,13.50
2019-04-01T03:50:01.047Z,13.40
2019-04-01T03:52:31.706Z,13.40
2019-04-01T03:55:02.352Z,13.40
2019-04-01T03:57:32.924Z,13.40
2019-04-01T04:00:03.710Z,13.40
2019-04-01T04:02:34.263Z,13.40
2019-04-01T04:05:05.276Z,13.30
2019-04-01T04:07:36.908Z,13.30
2019-04-01T04:10:08.016Z,13.30
2019-04-01T04:12:38.559Z,13.30
2019-04-01T04:15:09.328Z,13.30
2019-04-01T04:17:39.864Z,13.30
2019-04-01T04:20:10.566Z,13.30
2019-04-01T04:22:42.407Z,13.20
2019-04-01T04:25:14.440Z,13.20
2019-04-01T04:27:45.041Z,13.20
2019-04-01T04:30:21.541Z,13.20
2019-04-01T04:32:52.217Z,13.20
2019-04-01T04:35:22.743Z,13.20
2019-04-01T04:37:54.444Z,13.20
2019-04-01T04:40:25.065Z,13.10
2019-04-01T04:42:55.641Z,13.10
2019-04-01T04:45:26.214Z,13.10
2019-04-01T04:47:56.819Z,13.10
2019-04-01T04:50:27.375Z,13.10
2019-04-01T04:52:59.191Z,13.10
2019-04-01T04:55:29.741Z,13.10
2019-04-01T04:58:00.612Z,13.00
2019-04-01T05:00:31.156Z,13.10
2019-04-01T05:03:01.739Z,13.10
2019-04-01T05:05:35.436Z,13.10
2019-04-01T05:08:06.097Z,13.10
2019-04-01T05:10:36.705Z,13.20
2019-04-01T05:13:07.302Z,13.20
2019-04-01T05:15:38.143Z,13.20
2019-04-01T05:18:08.799Z,13.20
2019-04-01T05:21:30.919Z,13.20
2019-04-01T05:24:03.071Z,12.90
2019-04-01T05:26:35.992Z,13.00
2019-04-01T05:29:06.823Z,13.00
2019-04-01T05:31:40.664Z,13.10
2019-04-01T05:34:15.182Z,13.10
2019-04-01T05:36:46.951Z,13.10
2019-04-01T05:39:17.737Z,13.10
2019-04-01T05:41:49.599Z,13.10
2019-04-01T05:44:20.454Z,13.20
2019-04-01T05:46:51.125Z,13.20
2019-04-01T05:49:40.828Z,13.20
2019-04-01T05:52:13.274Z,13.20
2019-04-01T05:54:45.302Z,13.20
2019-04-01T05:57:16.299Z,13.20
2019-04-01T05:59:47.372Z,13.20
2019-04-01T06:02:18.080Z,13.30
2019-04-01T06:04:48.769Z,13.30
2019-04-01T06:07:20.887Z,13.30
2019-04-01T06:09:51.538Z,13.30
2019-04-01T06:12:24.124Z,13.30
2019-04-01T06:14:54.866Z,13.30
2019-04-01T06:17:25.527Z,13.30
2019-04-01T06:19:56.104Z,13.40
2019-04-01T06:22:26.870Z,13.40
2019-04-01T06:24:57.448Z,13.40
2019-04-01T06:27:28.405Z,13.40
2019-04-01T06:29:59.539Z,13.50
2019-04-01T06:32:30.956Z,13.50
2019-04-01T06:35:02.128Z,13.50
2019-04-01T06:37:34.152Z,13.50
2019-04-01T06:40:05.681Z,13.50
2019-04-01T06:42:36.454Z,13.60
2019-04-01T06:45:07.885Z,13.60
2019-04-01T06:47:38.787Z,13.70
2019-04-01T06:50:10.797Z,13.70
2019-04-01T06:52:43.824Z,13.80
2019-04-01T06:55:14.574Z,13.80
2019-04-01T06:57:45.248Z,13.80
2019-04-01T07:00:16.355Z,13.90
2019-04-01T07:02:47.011Z,13.90
2019-04-01T07:05:17.583Z,13.90
2019-04-01T07:07:48.243Z,14.00
2019-04-01T07:10:18.825Z,14.00
2019-04-01T07:12:50.468Z,14.10
2019-04-01T07:15:22.155Z,14.10
2019-04-01T07:17:52.958Z,14.10
2019-04-01T07:20:23.594Z,14.20
2019-04-01T07:22:54.264Z,14.20
2019-04-01T07:25:24.962Z,14.20
2019-04-01T07:27:55.513Z,14.20
2019-04-01T07:30:26.108Z,14.20
2019-04-01T07:32:56.665Z,14.30
2019-04-01T07:35:27.353Z,14.40
2019-04-01T07:37:57.895Z,14.80
2019-04-01T07:40:28.778Z,15.20
2019-04-01T07:42:59.500Z,15.70
2019-04-01T07:45:30.120Z,16.10
2019-04-01T07:48:02.188Z,16.60
2019-04-01T07:50:32.785Z,17.00
2019-04-01T07:53:03.825Z,17.40
2019-04-01T07:55:34.454Z,17.80
2019-04-01T07:58:05.002Z,18.10
2019-04-01T08:00:35.888Z,18.50
2019-04-01T08:03:06.548Z,18.70
2019-04-01T08:05:38.445Z,19.00
2019-04-01T08:08:09.005Z,19.20
2019-04-01T08:10:40.098Z,19.50
2019-04-01T08:13:13.584Z,19.70
2019-04-01T08:15:45.277Z,19.80
2019-04-01T08:18:15.861Z,19.80
2019-04-01T08:20:47.590Z,19.70
2019-04-01T08:23:18.150Z,19.80
2019-04-01T08:25:48.881Z,19.80
2019-04-01T08:28:19.591Z,19.60
2019-04-01T08:30:50.283Z,19.50
2019-04-01T08:33:23.294Z,19.40
2019-04-01T08:35:53.970Z,19.20
2019-04-01T08:38:26.366Z,19.10
2019-04-01T08:40:56.928Z,19.00
2019-04-01T08:43:28.630Z,19.00
2019-04-01T08:45:59.578Z,19.00
2019-04-01T08:48:35.384Z,19.10
2019-04-01T08:51:04.560Z,19.10
2019-04-01T08:53:37.319Z,19.10
2019-04-01T08:56:07.914Z,19.00
2019-04-01T08:58:38.880Z,18.80
2019-04-01T09:01:09.467Z,18.70
2019-04-01T09:03:41.521Z,18.40
2019-04-01T09:06:12.261Z,18.10
2019-04-01T09:08:45.352Z,17.90
2019-04-01T09:11:16.222Z,17.60
2019-04-01T09:13:48.303Z,17.50
2019-04-01T09:16:19.089Z,17.30
2019-04-01T09:18:50.687Z,17.10
2019-04-01T09:21:22.347Z,17.00
2019-04-01T09:23:52.935Z,16.90
2019-04-01T09:26:23.482Z,16.80
2019-04-01T09:28:55.182Z,16.70
2019-04-01T09:31:27.207Z,16.60
2019-04-01T09:33:57.874Z,16.50
2019-04-01T09:36:29.886Z,16.50
2019-04-01T09:39:02.558Z,16.40
2019-04-01T09:41:33.224Z,16.30
2019-04-01T09:44:05.254Z,16.30
2019-04-01T09:46:35.924Z,16.20
2019-04-01T09:49:06.724Z,16.20
2019-04-01T09:51:48.358Z,16.10
2019-04-01T09:54:10.926Z,16.10
2019-04-01T09:56:46.388Z,16.00
2019-04-01T09:59:16.970Z,16.00
2019-04-01T10:01:47.560Z,15.90
2019-04-01T10:04:18.171Z,15.80
2019-04-01T10:06:48.721Z,15.70
2019-04-01T10:09:19.402Z,15.70
2019-04-01T10:11:50.094Z,15.70
2019-04-01T10:14:20.713Z,15.70
2019-04-01T10:16:53.059Z,15.70
2019-04-01T10:19:23.657Z,15.70
2019-04-01T10:21:54.244Z,15.70
2019-04-01T10:24:24.928Z,15.70
2019-04-01T10:26:56.710Z,15.70
2019-04-01T10:29:27.384Z,15.70
2019-04-01T10:31:57.950Z,15.80
2019-04-01T10:34:28.561Z,15.70
2019-04-01T10:37:00.567Z,15.70
2019-04-01T10:39:32.586Z,15.70
2019-04-01T10:42:03.167Z,15.70
2019-04-01T10:44:33.920Z,15.70
2019-04-01T10:47:04.813Z,15.70
2019-04-01T10:49:37.271Z,15.70
2019-04-01T10:52:08.001Z,15.80
2019-04-01T10:54:38.703Z,15.70
2019-04-01T10:57:09.492Z,15.60
2019-04-01T11:00:14.373Z,15.60
2019-04-01T11:02:45.155Z,15.50
2019-04-01T11:05:16.119Z,15.60
2019-04-01T11:07:48.201Z,15.70
2019-04-01T11:10:19.039Z,15.70
2019-04-01T11:12:50.694Z,15.70
2019-04-01T11:15:22.776Z,15.80
2019-04-01T11:17:53.370Z,15.80
2019-04-01T11:20:24.064Z,15.80
2019-04-01T11:22:54.620Z,15.90
2019-04-01T11:25:25.483Z,16.00
2019-04-01T11:27:56.049Z,16.00
2019-04-01T11:30:26.654Z,16.00
2019-04-01T11:32:57.251Z,15.90
2019-04-01T11:35:29.051Z,15.90
2019-04-01T11:38:01.099Z,15.90
2019-04-01T11:40:31.825Z,15.90
2019-04-01T11:43:04.944Z,16.00
2019-04-01T11:45:37.157Z,16.00
2019-04-01T11:48:10.184Z,16.00
2019-04-01T11:50:41.008Z,16.00
2019-04-01T11:53:12.123Z,16.00
2019-04-01T11:55:45.991Z,16.10
2019-04-01T11:58:16.612Z,16.20
2019-04-01T12:00:47.360Z,16.20
2019-04-01T12:03:17.952Z,16.20
2019-04-01T12:05:48.654Z,16.10
2019-04-01T12:08:19.333Z,16.10
2019-04-01T12:10:50.058Z,16.10
2019-04-01T12:13:20.728Z,16.20
2019-04-01T12:15:51.411Z,16.10
2019-04-01T12:18:41.174Z,16.10
2019-04-01T12:21:11.865Z,16.20
2019-04-01T12:23:42.676Z,16.20
2019-04-01T12:26:15.344Z,16.30
2019-04-01T12:28:46.998Z,16.40
2019-04-01T12:31:17.657Z,16.40
2019-04-01T12:33:48.261Z,16.50
2019-04-01T12:36:19.576Z,16.50
2019-04-01T12:38:53.507Z,16.40
2019-04-01T12:41:22.525Z,16.40
2019-04-01T12:43:53.093Z,16.40
2019-04-01T12:46:24.876Z,16.40
2019-04-01T12:48:55.417Z,16.50
2019-04-01T12:51:26.008Z,16.40
2019-04-01T12:53:56.631Z,16.40
2019-04-01T12:56:27.249Z,16.40
2019-04-01T12:59:00.302Z,16.30
2019-04-01T13:01:32.836Z,16.40
2019-04-01T13:04:04.462Z,16.30
2019-04-01T13:06:35.285Z,16.40
2019-04-01T13:09:08.146Z,16.40
2019-04-01T13:11:39.530Z,16.50
2019-04-01T13:14:11.368Z,16.50
2019-04-01T13:16:42.095Z,16.50
2019-04-01T13:19:12.754Z,16.50
2019-04-01T13:21:43.467Z,16.50
2019-04-01T13:24:14.139Z,16.60
2019-04-01T13:26:44.750Z,16.50
2019-04-01T13:29:17.150Z,16.50
2019-04-01T13:31:47.929Z,16.50
2019-04-01T13:34:20.496Z,16.50
2019-04-01T13:36:51.119Z,16.50
2019-04-01T13:39:21.730Z,16.50
2019-04-01T13:41:56.248Z,16.50
2019-04-01T13:44:36.920Z,16.50
2019-04-01T13:46:59.081Z,16.50
2019-04-01T13:49:30.975Z,16.60
2019-04-01T13:52:03.680Z,16.50
2019-04-01T13:54:33.860Z,16.50
2019-04-01T13:57:05.607Z,16.60
2019-04-01T13:59:48.634Z,16.60
2019-04-01T14:02:08.978Z,16.70
2019-04-01T14:04:39.554Z,16.80
2019-04-01T14:07:11.723Z,16.90
2019-04-01T14:09:42.507Z,16.90
2019-04-01T14:12:13.255Z,16.80
2019-04-01T14:14:43.867Z,16.70
2019-04-01T14:17:14.471Z,16.80
2019-04-01T14:19:46.163Z,16.70
2019-04-01T14:22:16.790Z,16.60
2019-04-01T14:24:47.381Z,16.60
2019-04-01T14:27:19.282Z,16.50
2019-04-01T14:29:49.891Z,16.50
2019-04-01T14:32:20.535Z,16.60
2019-04-01T14:34:52.925Z,16.60
2019-04-01T14:37:26.099Z,16.70
2019-04-01T14:39:56.131Z,16.70
2019-04-01T14:42:47.017Z,16.70
2019-04-01T14:45:17.697Z,16.70
2019-04-01T14:47:56.981Z,16.80
2019-04-01T14:50:23.398Z,16.70
2019-04-01T14:52:54.019Z,16.70
2019-04-01T14:55:24.684Z,16.60
2019-04-01T14:57:55.255Z,16.60
2019-04-01T15:00:26.383Z,16.70
2019-04-01T15:02:58.407Z,16.70
2019-04-01T15:05:29.009Z,16.80
2019-04-01T15:07:59.580Z,16.70
2019-04-01T15:10:30.172Z,16.80
2019-04-01T15:13:05.663Z,16.90
2019-04-01T15:15:33.127Z,16.90
2019-04-01T15:18:03.750Z,17.00
2019-04-01T15:20:34.562Z,16.90
2019-04-01T15:23:05.339Z,16.90
2019-04-01T15:25:36.409Z,17.00
2019-04-01T15:28:07.094Z,17.00
2019-04-01T15:30:37.696Z,17.00
2019-04-01T15:33:09.652Z,16.90
2019-04-01T15:35:40.276Z,16.90
2019-04-01T15:38:12.603Z,16.90
2019-04-01T15:40:43.225Z,16.90
2019-04-01T15:43:14.976Z,16.80
2019-04-01T15:45:45.657Z,16.80
2019-04-01T15:48:16.409Z,16.80
2019-04-01T15:50:47.032Z,16.80
2019-04-01T15:53:17.600Z,16.80
2019-04-01T15:55:48.258Z,16.70
2019-04-01T15:58:19.171Z,16.70
2019-04-01T16:00:50.943Z,16.80
2019-04-01T16:03:21.614Z,16.80
2019-04-01T16:05:54.063Z,16.80
2019-04-01T16:08:25.228Z,16.90
2019-04-01T16:10:56.314Z,16.80
2019-04-01T16:13:26.903Z,16.90
2019-04-01T16:15:57.520Z,16.80
2019-04-01T16:18:28.096Z,16.80
2019-04-01T16:20:59.443Z,16.90
2019-04-01T16:23:30.379Z,16.90
2019-04-01T16:26:00.994Z,17.00
2019-04-01T16:28:31.676Z,17.00
2019-04-01T16:33:36.152Z,16.90
2019-04-01T16:36:27.281Z,16.90
2019-04-01T16:38:57.950Z,16.90
2019-04-01T16:41:28.742Z,16.90
2019-04-01T16:43:59.452Z,16.90
2019-04-01T16:46:30.239Z,16.80
2019-04-01T16:49:00.972Z,16.70
2019-04-01T16:51:31.985Z,16.60
2019-04-01T16:54:02.751Z,16.60
2019-04-01T16:56:33.399Z,16.60
2019-04-01T16:59:04.038Z,16.60
2019-04-01T17:01:34.734Z,16.50
2019-04-01T17:04:05.328Z,16.40
2019-04-01T17:06:35.918Z,16.50
2019-04-01T17:09:08.707Z,16.50
2019-04-01T17:11:39.275Z,16.50
2019-04-01T17:14:11.353Z,16.50
2019-04-01T17:16:42.021Z,16.50
2019-04-01T17:19:12.745Z,16.40
2019-04-01T17:21:43.392Z,16.40
2019-04-01T17:24:14.222Z,16.40
2019-04-01T17:27:12.506Z,16.40
2019-04-01T17:29:46.337Z,16.40
2019-04-01T17:32:17.079Z,16.40
2019-04-01T17:34:49.532Z,16.40
2019-04-01T17:37:21.305Z,16.30
2019-04-01T17:39:51.957Z,16.30
2019-04-01T17:42:22.615Z,16.40
2019-04-01T17:44:58.052Z,16.40
2019-04-01T17:47:28.790Z,16.40
2019-04-01T17:50:00.248Z,16.40
2019-04-01T17:52:31.102Z,16.30
2019-04-01T17:55:01.757Z,16.20
2019-04-01T17:57:32.550Z,16.20
2019-04-01T18:00:03.591Z,16.20
2019-04-01T18:02:35.183Z,16.20
2019-04-01T18:05:08.908Z,16.10
2019-04-01T18:07:39.602Z,16.10
2019-04-01T18:10:10.541Z,16.00
2019-04-01T18:12:41.206Z,16.00
2019-04-01T18:15:12.431Z,16.00
2019-04-01T18:17:43.082Z,16.00
2019-04-01T18:20:33.450Z,16.00
2019-04-01T18:23:05.277Z,16.00
2019-04-01T18:25:35.983Z,15.90
2019-04-01T18:28:06.853Z,15.90
2019-04-01T18:30:37.606Z,15.80
2019-04-01T18:33:08.348Z,15.80
2019-04-01T18:35:40.562Z,15.70
2019-04-01T18:38:13.758Z,15.70
2019-04-01T18:40:44.633Z,15.70
2019-04-01T18:43:15.280Z,15.70
2019-04-01T18:45:46.030Z,15.60
2019-04-01T18:48:16.750Z,15.60
2019-04-01T18:50:47.387Z,15.60
2019-04-01T18:53:17.966Z,15.60
2019-04-01T18:55:48.579Z,15.50
2019-04-01T18:58:19.297Z,15.60
2019-04-01T19:00:49.961Z,15.60
2019-04-01T19:03:23.863Z,15.50
2019-04-01T19:05:54.544Z,15.50
2019-04-01T19:08:25.270Z,15.50
2019-04-01T19:11:02.050Z,15.50
2019-04-01T19:13:28.318Z,15.50
2019-04-01T19:16:00.621Z,15.50
2019-04-01T19:18:31.769Z,15.50
2019-04-01T19:21:04.843Z,15.50
2019-04-01T19:23:34.959Z,15.50
2019-04-01T19:26:05.580Z,15.50
2019-04-01T19:28:36.187Z,15.50
2019-04-01T19:31:06.848Z,15.50
2019-04-01T19:33:39.748Z,15.50
2019-04-01T19:36:14.514Z,15.50
2019-04-01T19:38:49.158Z,15.40
2019-04-01T19:41:25.748Z,15.40
2019-04-01T19:43:57.053Z,15.40
2019-04-01T19:46:27.787Z,15.40
2019-04-01T19:48:58.425Z,15.40
2019-04-01T19:51:29.063Z,15.40
2019-04-01T19:54:00.713Z,15.30
2019-04-01T19:56:31.375Z,15.20
2019-04-01T19:59:02.079Z,15.20
2019-04-01T20:01:32.779Z,15.10
2019-04-01T20:04:03.394Z,15.10
2019-04-01T20:06:33.976Z,15.10
2019-04-01T20:09:06.887Z,15.10
2019-04-01T20:11:37.503Z,15.20
2019-04-01T20:14:11.126Z,15.20
2019-04-01T20:16:41.628Z,15.20
2019-04-01T20:19:12.238Z,15.20
2019-04-01T20:21:42.861Z,15.20
2019-04-01T20:24:13.450Z,15.20
2019-04-01T20:26:44.040Z,15.20
2019-04-01T20:29:15.887Z,15.20
2019-04-01T20:31:46.596Z,15.20
2019-04-01T20:34:19.954Z,15.20
2019-04-01T20:36:49.586Z,15.20
2019-04-01T20:39:20.292Z,15.20
2019-04-01T20:41:53.444Z,15.20
2019-04-01T20:44:24.106Z,15.20
2019-04-01T20:46:54.721Z,15.20
2019-04-01T20:49:25.289Z,15.20
2019-04-01T20:51:55.984Z,15.20
2019-04-01T20:54:26.645Z,15.10
2019-04-01T20:56:57.789Z,15.10
2019-04-01T20:59:28.444Z,15.10
2019-04-01T21:02:33.084Z,15.10
2019-04-01T21:05:05.500Z,15.00
2019-04-01T21:07:37.307Z,15.00
2019-04-01T21:10:08.611Z,15.00
2019-04-01T21:12:39.356Z,15.00
2019-04-01T21:15:11.897Z,15.10
2019-04-01T21:17:42.495Z,15.00
2019-04-01T21:20:13.644Z,15.00
2019-04-01T21:22:46.081Z,15.00
2019-04-01T21:25:16.686Z,15.00
2019-04-01T21:27:47.404Z,15.00
2019-04-01T21:30:19.144Z,15.00
2019-04-01T21:32:50.712Z,15.00
2019-04-01T21:35:21.400Z,15.00
2019-04-01T21:37:52.023Z,15.00
2019-04-01T21:40:22.586Z,15.10
2019-04-01T21:42:54.377Z,15.00
2019-04-01T21:45:24.941Z,15.00
2019-04-01T21:47:56.593Z,15.10
2019-04-01T21:50:29.551Z,15.00
2019-04-01T21:52:59.622Z,15.00
2019-04-01T21:55:30.267Z,15.00
2019-04-01T21:58:01.064Z,15.00
2019-04-01T22:00:49.419Z,15.00
2019-04-01T22:03:20.059Z,15.00
2019-04-01T22:05:50.656Z,15.00
2019-04-01T22:08:21.385Z,15.00
2019-04-01T22:10:51.953Z,15.00
2019-04-01T22:13:22.555Z,15.00
2019-04-01T22:15:53.102Z,15.00
2019-04-01T22:18:23.680Z,15.00
2019-04-01T22:20:55.714Z,15.00
2019-04-01T22:23:26.395Z,15.00
2019-04-01T22:25:56.992Z,15.00
2019-04-01T22:28:27.657Z,15.00
2019-04-01T22:30:58.244Z,14.90
2019-04-01T22:33:28.972Z,14.90
2019-04-01T22:36:02.591Z,14.90
2019-04-01T22:38:34.095Z,14.90
2019-04-01T22:41:05.659Z,14.90
2019-04-01T22:43:36.315Z,14.90
2019-04-01T22:46:06.874Z,14.90
2019-04-01T22:48:37.557Z,14.80
2019-04-01T22:51:08.678Z,14.80
2019-04-01T22:53:39.784Z,14.80
2019-04-01T22:56:12.246Z,14.80
2019-04-01T22:58:42.795Z,14.80
2019-04-01T23:01:16.018Z,14.80
2019-04-01T23:03:47.844Z,14.70
2019-04-01T23:06:18.545Z,14.70
2019-04-01T23:08:49.101Z,14.70
2019-04-01T23:11:19.871Z,14.70
2019-04-01T23:13:50.434Z,14.70
2019-04-01T23:16:21.329Z,14.70
2019-04-01T23:18:51.888Z,14.70
2019-04-01T23:21:23.559Z,14.70
2019-04-01T23:23:54.131Z,14.70
2019-04-01T23:26:26.303Z,14.60
2019-04-01T23:28:58.966Z,14.60
2019-04-01T23:31:29.684Z,14.60
2019-04-01T23:34:00.325Z,14.60
2019-04-01T23:36:31.066Z,14.60
2019-04-01T23:39:05.175Z,14.60
2019-04-01T23:41:35.858Z,14.50
2019-04-01T23:44:06.543Z,14.50
2019-04-01T23:46:38.177Z,14.50
2019-04-01T23:49:08.756Z,14.50
2019-04-01T23:51:39.331Z,14.50
2019-04-01T23:54:09.990Z,14.50
2019-04-01T23:56:40.618Z,14.40
2019-04-01T23:59:11.259Z,14.40
